Waynesfield, Ohio
Current Conditions -  °F | °C
As of 7:53 AM on Wednesday 26 Nov 2014 (Local Time) from KAOH Reporting Station
Overcast Overcast  
Wind Chill: 22°   Ceiling: 1500
Heat Index: 29°   Visibility: 10mi
Dew Point: 21°   Wind: 7mph
Humidity: 72%   Direction: 70°ENE
Pressure: 30.13"   Gusts: NA
Location:  40.6°N, 83.98°W
Report Text: KAOH 261253Z AUTO 07006KT 10SM OVC015 M02/M06 A3013 RMK AO2 SLP214 T10171061
Loading
Personal Weather Stations






























Interactive Weather Map New forecast layout! Learn more

10-Day Weather Forecast

Advertisements
Track Severe Weather on mobile